KGWO/GWO METAR and TAF weather

Enter ICAO airport designator
Station Type Date Time Source
KGWO METAR 2021/09/27 06:53 UTC NOAA

KGWO 270653Z AUTO 00000KT 10SM CLR 18/15 A3008 RMK AO2 SLP185 T01780150


Station Type Date Time Source
KGWO Decoded METAR 2021/09/27 06:53 UTC NOAA

GREENWOOD-LEFLORE AIRPORT, MS, United States (KGWO) 33-30N 090-05W 44M
Sep 27, 2021 - 02:53 AM EDT / 2021.09.27 0653 UTC
Wind: Calm:0
Visibility: 10 mile(s):0
Sky conditions: clear
Temperature: 64.0 F (17.8 C)
Dew Point: 59.0 F (15.0 C)
Relative Humidity: 83%
Pressure (altimeter): 30.08 in. Hg (1018 hPa)
ob: KGWO 270653Z AUTO 00000KT 10SM CLR 18/15 A3008 RMK AO2 SLP185 T01780150
cycle: 7

Station Type Date Time Source
KGWO TAF 2021/09/27 06:40 UTC NOAA

TAF KGWO 270538Z 2706/2806 18004KT P6SM SKC

Example: see airport list